sensor_id;sensor_type;location;lat;lon;timestamp;P1;durP1;ratioP1;P2;durP2;ratioP2
33644;SDS011;19986;48.190;16.366;2023-03-01T05:04:10;78.78;;;71.03;;
33644;SDS011;19986;48.190;16.366;2023-03-01T05:06:38;75.60;;;68.70;;
33644;SDS011;19986;48.190;16.366;2023-03-01T05:09:04;75.68;;;68.97;;
33644;SDS011;19986;48.190;16.366;2023-03-01T05:11:30;73.03;;;66.45;;
33644;SDS011;19986;48.190;16.366;2023-03-01T05:14:07;76.30;;;69.93;;
33644;SDS011;19986;48.190;16.366;2023-03-01T05:16:33;74.95;;;68.47;;
33644;SDS011;19986;48.190;16.366;2023-03-01T05:19:01;75.68;;;69.13;;
33644;SDS011;19986;48.190;16.366;2023-03-01T05:21:39;75.60;;;69.10;;
33644;SDS011;19986;48.190;16.366;2023-03-01T05:24:28;72.93;;;66.43;;
33644;SDS011;19986;48.190;16.366;2023-03-01T05:26:56;74.82;;;68.25;;
33644;SDS011;19986;48.190;16.366;2023-03-01T05:29:22;76.32;;;69.57;;
33644;SDS011;19986;48.190;16.366;2023-03-01T05:31:54;77.03;;;70.18;;
33644;SDS011;19986;48.190;16.366;2023-03-01T05:34:28;79.95;;;72.82;;
33644;SDS011;19986;48.190;16.366;2023-03-01T05:36:56;75.22;;;68.68;;
33644;SDS011;19986;48.190;16.366;2023-03-01T05:39:22;74.65;;;68.03;;
33644;SDS011;19986;48.190;16.366;2023-03-01T05:41:56;71.38;;;65.28;;
33644;SDS011;19986;48.190;16.366;2023-03-01T05:44:23;71.18;;;64.95;;
33644;SDS011;19986;48.190;16.366;2023-03-01T05:46:50;83.85;;;75.82;;
33644;SDS011;19986;48.190;16.366;2023-03-01T05:49:19;80.82;;;73.93;;
33644;SDS011;19986;48.190;16.366;2023-03-01T05:55:08;73.93;;;67.03;;
33644;SDS011;19986;48.190;16.366;2023-03-01T05:57:35;75.75;;;69.13;;
33644;SDS011;19986;48.190;16.366;2023-03-01T06:00:01;76.95;;;70.43;;
33644;SDS011;19986;48.190;16.366;2023-03-01T06:02:27;75.40;;;68.63;;
33644;SDS011;19986;48.190;16.366;2023-03-01T06:04:55;73.40;;;66.90;;
33644;SDS011;19986;48.190;16.366;2023-03-01T06:07:21;76.60;;;69.97;;
33644;SDS011;19986;48.190;16.366;2023-03-01T06:09:46;71.90;;;65.63;;
33644;SDS011;19986;48.190;16.366;2023-03-01T06:12:12;75.78;;;68.65;;
33644;SDS011;19986;48.190;16.366;2023-03-01T06:14:38;72.63;;;66.18;;
33644;SDS011;19986;48.190;16.366;2023-03-01T06:17:04;77.35;;;70.53;;
33644;SDS011;19986;48.190;16.366;2023-03-01T06:19:30;77.00;;;70.13;;
33644;SDS011;19986;48.190;16.366;2023-03-01T06:21:55;74.28;;;68.05;;
33644;SDS011;19986;48.190;16.366;2023-03-01T06:24:21;75.65;;;69.18;;
33644;SDS011;19986;48.190;16.366;2023-03-01T06:26:48;76.82;;;69.57;;
33644;SDS011;19986;48.190;16.366;2023-03-01T06:29:14;74.55;;;68.22;;
33644;SDS011;19986;48.190;16.366;2023-03-01T06:31:39;74.53;;;68.18;;
33644;SDS011;19986;48.190;16.366;2023-03-01T06:34:05;75.40;;;68.57;;
33644;SDS011;19986;48.190;16.366;2023-03-01T06:36:31;73.35;;;67.15;;
33644;SDS011;19986;48.190;16.366;2023-03-01T06:38:57;73.47;;;66.97;;
33644;SDS011;19986;48.190;16.366;2023-03-01T06:41:23;74.53;;;67.65;;
33644;SDS011;19986;48.190;16.366;2023-03-01T06:43:49;76.30;;;69.85;;
33644;SDS011;19986;48.190;16.366;2023-03-01T06:46:30;74.97;;;68.38;;
33644;SDS011;19986;48.190;16.366;2023-03-01T06:48:56;74.18;;;67.50;;
33644;SDS011;19986;48.190;16.366;2023-03-01T06:51:22;72.75;;;66.32;;
33644;SDS011;19986;48.190;16.366;2023-03-01T06:53:48;75.70;;;69.07;;
33644;SDS011;19986;48.190;16.366;2023-03-01T06:56:14;73.63;;;67.13;;
33644;SDS011;19986;48.190;16.366;2023-03-01T06:58:40;74.88;;;68.07;;
33644;SDS011;19986;48.190;16.366;2023-03-01T07:01:08;72.97;;;66.72;;
33644;SDS011;19986;48.190;16.366;2023-03-01T07:03:34;76.70;;;69.88;;
33644;SDS011;19986;48.190;16.366;2023-03-01T07:06:00;77.57;;;70.85;;
33644;SDS011;19986;48.190;16.366;2023-03-01T07:08:26;76.90;;;70.03;;
33644;SDS011;19986;48.190;16.366;2023-03-01T07:10:56;74.80;;;68.55;;
33644;SDS011;19986;48.190;16.366;2023-03-01T07:13:22;73.25;;;66.85;;
33644;SDS011;19986;48.190;16.366;2023-03-01T07:15:48;77.57;;;70.90;;
33644;SDS011;19986;48.190;16.366;2023-03-01T07:18:14;73.68;;;67.07;;
33644;SDS011;19986;48.190;16.366;2023-03-01T07:20:39;73.45;;;67.05;;
33644;SDS011;19986;48.190;16.366;2023-03-01T07:23:05;75.13;;;68.47;;
33644;SDS011;19986;48.190;16.366;2023-03-01T07:25:32;73.47;;;66.88;;
33644;SDS011;19986;48.190;16.366;2023-03-01T07:27:58;75.07;;;68.50;;
33644;SDS011;19986;48.190;16.366;2023-03-01T07:30:24;73.13;;;66.53;;
33644;SDS011;19986;48.190;16.366;2023-03-01T07:32:54;74.30;;;67.80;;
33644;SDS011;19986;48.190;16.366;2023-03-01T07:35:20;74.63;;;67.68;;
33644;SDS011;19986;48.190;16.366;2023-03-01T07:37:47;75.90;;;69.40;;
33644;SDS011;19986;48.190;16.366;2023-03-01T07:40:13;74.65;;;67.93;;
33644;SDS011;19986;48.190;16.366;2023-03-01T07:42:39;73.10;;;65.63;;
33644;SDS011;19986;48.190;16.366;2023-03-01T07:45:05;75.75;;;69.05;;
33644;SDS011;19986;48.190;16.366;2023-03-01T07:47:32;74.50;;;67.80;;
33644;SDS011;19986;48.190;16.366;2023-03-01T07:49:58;70.70;;;64.70;;
33644;SDS011;19986;48.190;16.366;2023-03-01T07:52:24;73.72;;;67.50;;
33644;SDS011;19986;48.190;16.366;2023-03-01T07:54:50;71.78;;;65.80;;
33644;SDS011;19986;48.190;16.366;2023-03-01T07:57:16;71.78;;;65.50;;
33644;SDS011;19986;48.190;16.366;2023-03-01T07:59:42;71.30;;;64.93;;
33644;SDS011;19986;48.190;16.366;2023-03-01T08:02:08;72.07;;;66.10;;
33644;SDS011;19986;48.190;16.366;2023-03-01T08:04:35;74.57;;;68.18;;
33644;SDS011;19986;48.190;16.366;2023-03-01T08:07:03;70.57;;;64.35;;
33644;SDS011;19986;48.190;16.366;2023-03-01T08:09:30;68.82;;;62.80;;
33644;SDS011;19986;48.190;16.366;2023-03-01T08:11:56;73.32;;;67.28;;
33644;SDS011;19986;48.190;16.366;2023-03-01T08:14:25;74.97;;;68.35;;
33644;SDS011;19986;48.190;16.366;2023-03-01T08:16:51;75.88;;;69.68;;
33644;SDS011;19986;48.190;16.366;2023-03-01T08:19:17;74.97;;;68.25;;
33644;SDS011;19986;48.190;16.366;2023-03-01T08:21:44;75.65;;;69.05;;
33644;SDS011;19986;48.190;16.366;2023-03-01T08:24:10;74.38;;;67.90;;
33644;SDS011;19986;48.190;16.366;2023-03-01T08:26:37;73.95;;;67.35;;
33644;SDS011;19986;48.190;16.366;2023-03-01T08:29:03;76.38;;;69.07;;
33644;SDS011;19986;48.190;16.366;2023-03-01T08:31:30;75.97;;;69.00;;
33644;SDS011;19986;48.190;16.366;2023-03-01T08:34:03;76.90;;;70.32;;
33644;SDS011;19986;48.190;16.366;2023-03-01T08:36:34;73.75;;;67.00;;
33644;SDS011;19986;48.190;16.366;2023-03-01T08:39:02;76.82;;;69.70;;
33644;SDS011;19986;48.190;16.366;2023-03-01T08:41:28;71.22;;;65.15;;
33644;SDS011;19986;48.190;16.366;2023-03-01T08:43:54;77.45;;;71.18;;
33644;SDS011;19986;48.190;16.366;2023-03-01T08:46:24;75.53;;;69.03;;
33644;SDS011;19986;48.190;16.366;2023-03-01T08:48:54;78.57;;;71.18;;
33644;SDS011;19986;48.190;16.366;2023-03-01T08:51:22;73.30;;;66.93;;
33644;SDS011;19986;48.190;16.366;2023-03-01T08:53:49;73.43;;;66.72;;
33644;SDS011;19986;48.190;16.366;2023-03-01T08:56:15;72.65;;;65.70;;
33644;SDS011;19986;48.190;16.366;2023-03-01T08:58:44;75.75;;;69.35;;
33644;SDS011;19986;48.190;16.366;2023-03-01T09:01:12;74.95;;;67.63;;
33644;SDS011;19986;48.190;16.366;2023-03-01T09:03:40;75.53;;;68.95;;
33644;SDS011;19986;48.190;16.366;2023-03-01T09:06:07;76.38;;;69.57;;
33644;SDS011;19986;48.190;16.366;2023-03-01T09:08:35;74.10;;;67.90;;
33644;SDS011;19986;48.190;16.366;2023-03-01T09:11:05;74.85;;;68.35;;
33644;SDS011;19986;48.190;16.366;2023-03-01T09:13:33;76.75;;;70.10;;
33644;SDS011;19986;48.190;16.366;2023-03-01T09:16:01;75.88;;;69.38;;
33644;SDS011;19986;48.190;16.366;2023-03-01T09:18:28;72.55;;;65.93;;
33644;SDS011;19986;48.190;16.366;2023-03-01T09:21:28;71.18;;;65.38;;
33644;SDS011;19986;48.190;16.366;2023-03-01T09:23:48;72.28;;;66.03;;
33644;SDS011;19986;48.190;16.366;2023-03-01T09:26:21;69.38;;;63.33;;
33644;SDS011;19986;48.190;16.366;2023-03-01T09:28:49;73.85;;;67.05;;
33644;SDS011;19986;48.190;16.366;2023-03-01T09:31:17;71.18;;;64.50;;
33644;SDS011;19986;48.190;16.366;2023-03-01T09:33:45;71.03;;;65.13;;
33644;SDS011;19986;48.190;16.366;2023-03-01T09:36:13;71.05;;;65.00;;
33644;SDS011;19986;48.190;16.366;2023-03-01T09:38:44;71.40;;;65.10;;
33644;SDS011;19986;48.190;16.366;2023-03-01T09:46:56;69.68;;;63.25;;
33644;SDS011;19986;48.190;16.366;2023-03-01T09:49:24;69.72;;;63.67;;
33644;SDS011;19986;48.190;16.366;2023-03-01T09:55:13;67.07;;;61.53;;
33644;SDS011;19986;48.190;16.366;2023-03-01T09:57:43;67.22;;;61.85;;
33644;SDS011;19986;48.190;16.366;2023-03-01T10:02:56;68.05;;;62.28;;
33644;SDS011;19986;48.190;16.366;2023-03-01T10:05:37;69.82;;;64.05;;
33644;SDS011;19986;48.190;16.366;2023-03-01T10:10:51;70.35;;;64.50;;
33644;SDS011;19986;48.190;16.366;2023-03-01T10:16:19;62.30;;;57.35;;
33644;SDS011;19986;48.190;16.366;2023-03-01T10:19:14;65.28;;;60.20;;
33644;SDS011;19986;48.190;16.366;2023-03-01T10:21:48;64.78;;;59.60;;
33644;SDS011;19986;48.190;16.366;2023-03-01T10:24:17;64.78;;;59.17;;
33644;SDS011;19986;48.190;16.366;2023-03-01T10:29:15;61.72;;;56.90;;
33644;SDS011;19986;48.190;16.366;2023-03-01T10:34:19;62.45;;;56.78;;
33644;SDS011;19986;48.190;16.366;2023-03-01T10:36:49;61.63;;;56.60;;
33644;SDS011;19986;48.190;16.366;2023-03-01T10:39:18;59.72;;;55.15;;
33644;SDS011;19986;48.190;16.366;2023-03-01T10:41:58;60.40;;;55.80;;
33644;SDS011;19986;48.190;16.366;2023-03-01T10:44:39;61.08;;;56.10;;
33644;SDS011;19986;48.190;16.366;2023-03-01T10:47:17;64.22;;;59.05;;
33644;SDS011;19986;48.190;16.366;2023-03-01T10:52:36;62.40;;;57.47;;
33644;SDS011;19986;48.190;16.366;2023-03-01T10:57:49;72.05;;;65.60;;
33644;SDS011;19986;48.190;16.366;2023-03-01T11:00:17;67.28;;;61.75;;
33644;SDS011;19986;48.190;16.366;2023-03-01T11:02:47;61.40;;;56.53;;
33644;SDS011;19986;48.190;16.366;2023-03-01T11:05:19;59.17;;;55.08;;
33644;SDS011;19986;48.190;16.366;2023-03-01T11:07:53;60.45;;;56.17;;
33644;SDS011;19986;48.190;16.366;2023-03-01T11:10:23;60.15;;;55.78;;
33644;SDS011;19986;48.190;16.366;2023-03-01T11:12:50;57.05;;;52.83;;
33644;SDS011;19986;48.190;16.366;2023-03-01T11:15:21;65.30;;;60.10;;
33644;SDS011;19986;48.190;16.366;2023-03-01T11:17:53;68.03;;;62.40;;
33644;SDS011;19986;48.190;16.366;2023-03-01T11:20:39;62.28;;;57.58;;
33644;SDS011;19986;48.190;16.366;2023-03-01T11:23:06;67.53;;;62.20;;
33644;SDS011;19986;48.190;16.366;2023-03-01T11:25:38;62.70;;;57.42;;
33644;SDS011;19986;48.190;16.366;2023-03-01T11:28:07;63.95;;;58.95;;
33644;SDS011;19986;48.190;16.366;2023-03-01T11:30:41;63.20;;;58.13;;
33644;SDS011;19986;48.190;16.366;2023-03-01T11:36:27;64.72;;;59.22;;
33644;SDS011;19986;48.190;16.366;2023-03-01T11:41:51;64.80;;;59.25;;
33644;SDS011;19986;48.190;16.366;2023-03-01T11:44:26;64.35;;;59.28;;
33644;SDS011;19986;48.190;16.366;2023-03-01T12:06:00;65.03;;;60.03;;
33644;SDS011;19986;48.190;16.366;2023-03-01T12:16:45;61.10;;;56.30;;
33644;SDS011;19986;48.190;16.366;2023-03-01T12:19:50;62.97;;;57.92;;
33644;SDS011;19986;48.190;16.366;2023-03-01T12:22:30;61.47;;;56.67;;
33644;SDS011;19986;48.190;16.366;2023-03-01T12:28:11;64.63;;;59.13;;
33644;SDS011;19986;48.190;16.366;2023-03-01T12:47:58;58.88;;;54.25;;
33644;SDS011;19986;48.190;16.366;2023-03-01T12:50:48;61.63;;;56.90;;
33644;SDS011;19986;48.190;16.366;2023-03-01T12:53:27;57.42;;;53.08;;
33644;SDS011;19986;48.190;16.366;2023-03-01T12:56:02;58.85;;;54.35;;
33644;SDS011;19986;48.190;16.366;2023-03-01T12:58:36;61.20;;;56.80;;
33644;SDS011;19986;48.190;16.366;2023-03-01T13:01:16;62.55;;;57.85;;
33644;SDS011;19986;48.190;16.366;2023-03-01T13:06:40;60.78;;;56.28;;
33644;SDS011;19986;48.190;16.366;2023-03-01T13:09:15;60.25;;;55.90;;
33644;SDS011;19986;48.190;16.366;2023-03-01T13:11:42;60.47;;;55.78;;
33644;SDS011;19986;48.190;16.366;2023-03-01T13:14:34;62.17;;;57.47;;
33644;SDS011;19986;48.190;16.366;2023-03-01T13:16:56;61.47;;;57.03;;
33644;SDS011;19986;48.190;16.366;2023-03-01T13:19:25;62.45;;;57.67;;
33644;SDS011;19986;48.190;16.366;2023-03-01T13:21:57;60.38;;;55.97;;
33644;SDS011;19986;48.190;16.366;2023-03-01T13:24:37;60.53;;;56.13;;
33644;SDS011;19986;48.190;16.366;2023-03-01T13:29:47;58.85;;;54.35;;
33644;SDS011;19986;48.190;16.366;2023-03-01T13:32:24;60.05;;;55.60;;
33644;SDS011;19986;48.190;16.366;2023-03-01T13:34:51;58.95;;;54.65;;
33644;SDS011;19986;48.190;16.366;2023-03-01T13:37:23;59.88;;;55.28;;
33644;SDS011;19986;48.190;16.366;2023-03-01T13:39:58;58.35;;;54.05;;
33644;SDS011;19986;48.190;16.366;2023-03-01T13:42:31;58.80;;;54.42;;
33644;SDS011;19986;48.190;16.366;2023-03-01T13:45:14;59.22;;;54.72;;
33644;SDS011;19986;48.190;16.366;2023-03-01T13:47:43;63.50;;;58.55;;
33644;SDS011;19986;48.190;16.366;2023-03-01T13:50:18;60.70;;;56.20;;
33644;SDS011;19986;48.190;16.366;2023-03-01T13:52:53;58.42;;;53.70;;
33644;SDS011;19986;48.190;16.366;2023-03-01T13:55:44;61.88;;;56.80;;
33644;SDS011;19986;48.190;16.366;2023-03-01T13:58:16;58.63;;;53.88;;
33644;SDS011;19986;48.190;16.366;2023-03-01T14:00:46;62.13;;;57.35;;
33644;SDS011;19986;48.190;16.366;2023-03-01T14:03:14;57.20;;;52.72;;
33644;SDS011;19986;48.190;16.366;2023-03-01T14:05:57;60.35;;;55.50;;
33644;SDS011;19986;48.190;16.366;2023-03-01T14:08:32;59.28;;;55.03;;
33644;SDS011;19986;48.190;16.366;2023-03-01T14:16:27;60.00;;;55.58;;
33644;SDS011;19986;48.190;16.366;2023-03-01T14:21:39;60.08;;;55.75;;
33644;SDS011;19986;48.190;16.366;2023-03-01T14:24:06;59.72;;;54.97;;
33644;SDS011;19986;48.190;16.366;2023-03-01T14:26:48;59.85;;;55.22;;
33644;SDS011;19986;48.190;16.366;2023-03-01T14:31:51;59.55;;;55.20;;
33644;SDS011;19986;48.190;16.366;2023-03-01T14:34:21;59.20;;;55.03;;
33644;SDS011;19986;48.190;16.366;2023-03-01T14:36:49;57.75;;;53.70;;
33644;SDS011;19986;48.190;16.366;2023-03-01T14:39:16;60.42;;;55.83;;
33644;SDS011;19986;48.190;16.366;2023-03-01T14:41:43;60.25;;;55.80;;
33644;SDS011;19986;48.190;16.366;2023-03-01T14:44:15;56.95;;;52.53;;
33644;SDS011;19986;48.190;16.366;2023-03-01T14:46:51;61.10;;;56.65;;
33644;SDS011;19986;48.190;16.366;2023-03-01T14:49:19;59.80;;;55.47;;
33644;SDS011;19986;48.190;16.366;2023-03-01T14:52:35;59.95;;;55.17;;
33644;SDS011;19986;48.190;16.366;2023-03-01T14:54:51;61.58;;;56.75;;
33644;SDS011;19986;48.190;16.366;2023-03-01T14:57:23;62.13;;;57.33;;
33644;SDS011;19986;48.190;16.366;2023-03-01T14:59:54;61.67;;;56.88;;
33644;SDS011;19986;48.190;16.366;2023-03-01T15:02:24;63.80;;;58.97;;
33644;SDS011;19986;48.190;16.366;2023-03-01T15:04:52;64.22;;;59.35;;
33644;SDS011;19986;48.190;16.366;2023-03-01T15:07:35;62.35;;;57.05;;
33644;SDS011;19986;48.190;16.366;2023-03-01T15:10:05;62.72;;;57.78;;
33644;SDS011;19986;48.190;16.366;2023-03-01T15:12:34;60.90;;;56.20;;
33644;SDS011;19986;48.190;16.366;2023-03-01T15:15:08;65.95;;;60.95;;
33644;SDS011;19986;48.190;16.366;2023-03-01T15:17:56;62.92;;;58.05;;
33644;SDS011;19986;48.190;16.366;2023-03-01T15:20:25;63.88;;;58.75;;
33644;SDS011;19986;48.190;16.366;2023-03-01T15:22:54;63.63;;;58.70;;
33644;SDS011;19986;48.190;16.366;2023-03-01T15:25:26;61.72;;;57.22;;
33644;SDS011;19986;48.190;16.366;2023-03-01T15:27:53;64.25;;;59.33;;
33644;SDS011;19986;48.190;16.366;2023-03-01T15:30:26;65.05;;;60.00;;
33644;SDS011;19986;48.190;16.366;2023-03-01T15:35:48;63.33;;;58.40;;
33644;SDS011;19986;48.190;16.366;2023-03-01T15:38:30;63.22;;;58.47;;
33644;SDS011;19986;48.190;16.366;2023-03-01T15:41:37;63.15;;;58.05;;
33644;SDS011;19986;48.190;16.366;2023-03-01T15:44:26;64.75;;;58.67;;
33644;SDS011;19986;48.190;16.366;2023-03-01T15:46:54;63.00;;;57.83;;
33644;SDS011;19986;48.190;16.366;2023-03-01T15:52:09;64.53;;;59.15;;
33644;SDS011;19986;48.190;16.366;2023-03-01T15:54:47;65.00;;;59.40;;
33644;SDS011;19986;48.190;16.366;2023-03-01T15:57:13;63.92;;;58.78;;
33644;SDS011;19986;48.190;16.366;2023-03-01T15:59:40;62.33;;;57.50;;
33644;SDS011;19986;48.190;16.366;2023-03-01T16:02:10;63.20;;;58.05;;
33644;SDS011;19986;48.190;16.366;2023-03-01T16:04:37;63.13;;;58.05;;
33644;SDS011;19986;48.190;16.366;2023-03-01T16:07:04;62.25;;;57.40;;
33644;SDS011;19986;48.190;16.366;2023-03-01T16:09:31;63.63;;;58.63;;
33644;SDS011;19986;48.190;16.366;2023-03-01T16:11:57;63.05;;;57.85;;
33644;SDS011;19986;48.190;16.366;2023-03-01T16:14:23;63.33;;;58.30;;
33644;SDS011;19986;48.190;16.366;2023-03-01T16:16:49;64.80;;;59.75;;
33644;SDS011;19986;48.190;16.366;2023-03-01T16:19:15;63.70;;;58.72;;
33644;SDS011;19986;48.190;16.366;2023-03-01T16:21:42;63.05;;;58.42;;
33644;SDS011;19986;48.190;16.366;2023-03-01T16:24:09;60.72;;;55.90;;
33644;SDS011;19986;48.190;16.366;2023-03-01T16:26:36;63.13;;;58.20;;
33644;SDS011;19986;48.190;16.366;2023-03-01T16:29:03;62.67;;;57.75;;
33644;SDS011;19986;48.190;16.366;2023-03-01T16:31:32;63.63;;;58.53;;
33644;SDS011;19986;48.190;16.366;2023-03-01T16:33:58;65.82;;;60.60;;
33644;SDS011;19986;48.190;16.366;2023-03-01T16:36:26;62.53;;;57.42;;
33644;SDS011;19986;48.190;16.366;2023-03-01T16:38:54;60.85;;;56.15;;
33644;SDS011;19986;48.190;16.366;2023-03-01T16:41:21;61.42;;;56.60;;
33644;SDS011;19986;48.190;16.366;2023-03-01T16:43:48;63.67;;;58.30;;
33644;SDS011;19986;48.190;16.366;2023-03-01T16:46:15;59.88;;;55.28;;
33644;SDS011;19986;48.190;16.366;2023-03-01T16:48:43;62.55;;;57.70;;
33644;SDS011;19986;48.190;16.366;2023-03-01T16:51:10;63.65;;;58.78;;
33644;SDS011;19986;48.190;16.366;2023-03-01T16:53:37;62.25;;;57.28;;
33644;SDS011;19986;48.190;16.366;2023-03-01T16:56:04;63.35;;;58.42;;
33644;SDS011;19986;48.190;16.366;2023-03-01T16:58:31;62.10;;;56.85;;
33644;SDS011;19986;48.190;16.366;2023-03-01T17:01:03;64.88;;;58.90;;
33644;SDS011;19986;48.190;16.366;2023-03-01T17:03:31;60.60;;;55.80;;
33644;SDS011;19986;48.190;16.366;2023-03-01T17:05:57;61.20;;;56.30;;
33644;SDS011;19986;48.190;16.366;2023-03-01T17:08:27;62.28;;;57.40;;
33644;SDS011;19986;48.190;16.366;2023-03-01T17:10:53;63.10;;;58.40;;
33644;SDS011;19986;48.190;16.366;2023-03-01T17:13:19;63.80;;;58.55;;
33644;SDS011;19986;48.190;16.366;2023-03-01T17:15:45;63.58;;;58.50;;
33644;SDS011;19986;48.190;16.366;2023-03-01T17:18:11;76.22;;;68.10;;
33644;SDS011;19986;48.190;16.366;2023-03-01T17:20:38;74.25;;;66.63;;
33644;SDS011;19986;48.190;16.366;2023-03-01T17:23:04;63.30;;;58.03;;
33644;SDS011;19986;48.190;16.366;2023-03-01T17:25:30;64.13;;;58.55;;
33644;SDS011;19986;48.190;16.366;2023-03-01T17:27:58;69.35;;;63.72;;
33644;SDS011;19986;48.190;16.366;2023-03-01T17:30:24;65.45;;;60.20;;
33644;SDS011;19986;48.190;16.366;2023-03-01T17:32:50;63.75;;;58.30;;
33644;SDS011;19986;48.190;16.366;2023-03-01T17:35:19;63.78;;;58.63;;
33644;SDS011;19986;48.190;16.366;2023-03-01T17:37:45;63.30;;;58.33;;
33644;SDS011;19986;48.190;16.366;2023-03-01T17:40:12;60.78;;;55.88;;
33644;SDS011;19986;48.190;16.366;2023-03-01T17:42:41;66.53;;;61.22;;
33644;SDS011;19986;48.190;16.366;2023-03-01T17:45:07;62.70;;;57.70;;
33644;SDS011;19986;48.190;16.366;2023-03-01T17:47:34;60.67;;;55.47;;
33644;SDS011;19986;48.190;16.366;2023-03-01T17:50:00;80.18;;;72.82;;
33644;SDS011;19986;48.190;16.366;2023-03-01T17:52:28;63.08;;;57.67;;
33644;SDS011;19986;48.190;16.366;2023-03-01T17:54:54;64.80;;;59.08;;
33644;SDS011;19986;48.190;16.366;2023-03-01T17:57:19;71.25;;;64.85;;
33644;SDS011;19986;48.190;16.366;2023-03-01T17:59:45;70.40;;;64.55;;
33644;SDS011;19986;48.190;16.366;2023-03-01T18:02:15;67.97;;;62.00;;
33644;SDS011;19986;48.190;16.366;2023-03-01T18:04:43;70.00;;;64.18;;
33644;SDS011;19986;48.190;16.366;2023-03-01T18:07:09;66.05;;;60.65;;
33644;SDS011;19986;48.190;16.366;2023-03-01T18:09:35;64.10;;;58.88;;
33644;SDS011;19986;48.190;16.366;2023-03-01T18:12:02;66.20;;;60.90;;
33644;SDS011;19986;48.190;16.366;2023-03-01T18:14:29;65.40;;;60.17;;
33644;SDS011;19986;48.190;16.366;2023-03-01T18:16:58;67.28;;;61.53;;
33644;SDS011;19986;48.190;16.366;2023-03-01T18:19:31;70.15;;;64.35;;
33644;SDS011;19986;48.190;16.366;2023-03-01T18:21:58;69.97;;;64.25;;
33644;SDS011;19986;48.190;16.366;2023-03-01T18:24:25;66.35;;;60.90;;
33644;SDS011;19986;48.190;16.366;2023-03-01T18:26:53;66.43;;;60.92;;
33644;SDS011;19986;48.190;16.366;2023-03-01T18:29:19;64.68;;;59.38;;
33644;SDS011;19986;48.190;16.366;2023-03-01T18:31:45;68.05;;;62.60;;
33644;SDS011;19986;48.190;16.366;2023-03-01T18:34:12;64.32;;;59.17;;
33644;SDS011;19986;48.190;16.366;2023-03-01T18:36:40;62.45;;;57.13;;
33644;SDS011;19986;48.190;16.366;2023-03-01T18:39:06;65.55;;;60.15;;
33644;SDS011;19986;48.190;16.366;2023-03-01T18:41:33;66.70;;;61.33;;
33644;SDS011;19986;48.190;16.366;2023-03-01T18:44:02;66.95;;;61.28;;
33644;SDS011;19986;48.190;16.366;2023-03-01T18:46:30;67.50;;;61.92;;
33644;SDS011;19986;48.190;16.366;2023-03-01T18:48:56;72.15;;;66.00;;
33644;SDS011;19986;48.190;16.366;2023-03-01T18:51:26;68.70;;;62.90;;
33644;SDS011;19986;48.190;16.366;2023-03-01T18:53:55;81.57;;;73.85;;
33644;SDS011;19986;48.190;16.366;2023-03-01T18:56:23;73.03;;;66.38;;
33644;SDS011;19986;48.190;16.366;2023-03-01T18:58:50;75.07;;;68.00;;
33644;SDS011;19986;48.190;16.366;2023-03-01T19:01:19;80.22;;;72.22;;
33644;SDS011;19986;48.190;16.366;2023-03-01T19:03:47;75.00;;;67.93;;
33644;SDS011;19986;48.190;16.366;2023-03-01T19:06:13;77.05;;;70.00;;
33644;SDS011;19986;48.190;16.366;2023-03-01T19:08:40;74.28;;;67.50;;
33644;SDS011;19986;48.190;16.366;2023-03-01T19:11:08;75.80;;;69.00;;
33644;SDS011;19986;48.190;16.366;2023-03-01T19:13:36;74.65;;;67.97;;
33644;SDS011;19986;48.190;16.366;2023-03-01T19:16:05;74.30;;;67.75;;
33644;SDS011;19986;48.190;16.366;2023-03-01T19:18:35;74.25;;;67.22;;
33644;SDS011;19986;48.190;16.366;2023-03-01T19:21:04;72.22;;;65.63;;
33644;SDS011;19986;48.190;16.366;2023-03-01T19:23:30;71.13;;;64.90;;
33644;SDS011;19986;48.190;16.366;2023-03-01T19:26:01;74.53;;;67.90;;
33644;SDS011;19986;48.190;16.366;2023-03-01T19:28:29;72.18;;;65.70;;
33644;SDS011;19986;48.190;16.366;2023-03-01T19:30:59;72.28;;;65.82;;
33644;SDS011;19986;48.190;16.366;2023-03-01T19:33:27;72.40;;;65.63;;
33644;SDS011;19986;48.190;16.366;2023-03-01T19:35:55;78.03;;;70.93;;
33644;SDS011;19986;48.190;16.366;2023-03-01T19:38:22;73.63;;;67.22;;
33644;SDS011;19986;48.190;16.366;2023-03-01T19:40:49;74.00;;;67.50;;
33644;SDS011;19986;48.190;16.366;2023-03-01T19:43:16;71.50;;;64.95;;
33644;SDS011;19986;48.190;16.366;2023-03-01T19:45:43;74.55;;;67.72;;
33644;SDS011;19986;48.190;16.366;2023-03-01T19:48:11;76.63;;;69.68;;
33644;SDS011;19986;48.190;16.366;2023-03-01T19:50:37;79.25;;;71.90;;
33644;SDS011;19986;48.190;16.366;2023-03-01T19:53:04;75.40;;;68.82;;
33644;SDS011;19986;48.190;16.366;2023-03-01T19:55:31;77.38;;;70.15;;
33644;SDS011;19986;48.190;16.366;2023-03-01T19:58:00;76.55;;;69.43;;
33644;SDS011;19986;48.190;16.366;2023-03-01T20:00:26;77.10;;;70.20;;
33644;SDS011;19986;48.190;16.366;2023-03-01T20:02:53;76.40;;;69.57;;
33644;SDS011;19986;48.190;16.366;2023-03-01T20:05:21;78.72;;;71.32;;
33644;SDS011;19986;48.190;16.366;2023-03-01T20:07:47;77.15;;;69.43;;
33644;SDS011;19986;48.190;16.366;2023-03-01T20:10:15;76.90;;;69.60;;
33644;SDS011;19986;48.190;16.366;2023-03-01T20:12:42;79.45;;;71.95;;
33644;SDS011;19986;48.190;16.366;2023-03-01T20:15:09;79.95;;;72.90;;
33644;SDS011;19986;48.190;16.366;2023-03-01T20:17:37;78.25;;;71.03;;
33644;SDS011;19986;48.190;16.366;2023-03-01T20:20:03;82.40;;;74.45;;
33644;SDS011;19986;48.190;16.366;2023-03-01T20:22:30;68.80;;;62.83;;
33644;SDS011;19986;48.190;16.366;2023-03-01T20:24:57;71.07;;;64.95;;
33644;SDS011;19986;48.190;16.366;2023-03-01T20:27:24;71.97;;;65.80;;
33644;SDS011;19986;48.190;16.366;2023-03-01T20:29:51;70.63;;;64.60;;
33644;SDS011;19986;48.190;16.366;2023-03-01T20:32:18;78.22;;;71.18;;
33644;SDS011;19986;48.190;16.366;2023-03-01T20:34:46;74.25;;;67.30;;
33644;SDS011;19986;48.190;16.366;2023-03-01T20:37:14;75.88;;;69.03;;
33644;SDS011;19986;48.190;16.366;2023-03-01T20:39:40;73.72;;;67.15;;
33644;SDS011;19986;48.190;16.366;2023-03-01T20:42:06;75.32;;;68.55;;
33644;SDS011;19986;48.190;16.366;2023-03-01T20:44:33;75.45;;;68.65;;
33644;SDS011;19986;48.190;16.366;2023-03-01T20:46:59;78.18;;;71.22;;
33644;SDS011;19986;48.190;16.366;2023-03-01T20:49:26;75.50;;;68.72;;
33644;SDS011;19986;48.190;16.366;2023-03-01T20:51:52;69.32;;;63.38;;
33644;SDS011;19986;48.190;16.366;2023-03-01T20:54:18;68.90;;;62.63;;
33644;SDS011;19986;48.190;16.366;2023-03-01T20:56:44;70.07;;;64.38;;
